Time;durP1;ratioP1;P1;durP2;ratioP2;P2;SDS_P1;SDS_P2;PMS_P1;PMS_P2;Temp;Humidity;BMP_temperature;BMP_pressure;BME280_temperature;BME280_humidity;BME280_pressure;Samples;Min_cycle;Max_cycle;Signal;HPM_P1;HPM_P2
2021/04/28 00:00:31;;;;;;;;;;;;;;;12.91;64.61;94400.69;4986979;28;19981;-78
2021/04/28 00:02:56;;;;;;;;;;;;;;;12.91;64.54;94408.50;4989928;28;20425;-79
2021/04/28 00:05:21;;;;;;;;;;;;;;;12.88;63.65;94403.81;4982074;28;19972;-79
2021/04/28 00:07:47;;;;;;;;;;;;;;;12.79;63.57;94413.94;4983532;28;19918;-79
2021/04/28 00:10:13;;;;;;;;;;;;;;;12.72;64.36;94404.78;4981899;28;20005;-79
2021/04/28 00:12:38;;;;;;;;;;;;;;;12.74;63.86;94407.94;4980125;28;19949;-78
2021/04/28 00:15:08;;;;;;;;;;;;;;;12.68;64.14;94408.94;4980251;28;19918;-78
2021/04/28 00:17:33;;;;;;;;;;;;;;;12.58;64.11;94417.50;4998855;28;19921;-78
2021/04/28 00:19:59;;;;;;;;;;;;;;;12.50;64.42;94413.53;5022698;28;20444;-78
2021/04/28 00:22:24;;;;;;;;;;;;;;;12.50;65.00;94405.72;4997768;28;19958;-77
2021/04/28 00:24:49;;;;;;;;;;;;;;;12.51;64.79;94409.88;4996609;28;20409;-79
2021/04/28 00:27:15;;;;;;;;;;;;;;;12.52;64.63;94406.25;4984885;28;19941;-79
2021/04/28 00:29:40;;;;;;;;;;;;;;;12.56;64.24;94411.75;4980541;28;19968;-78
2021/04/28 00:32:05;;;;;;;;;;;;;;;12.52;64.73;94414.06;4979194;28;20013;-78
2021/04/28 00:34:30;;;;;;;;;;;;;;;12.53;64.24;94417.50;5003532;28;20318;-80
2021/04/28 00:36:59;;;;;;;;;;;;;;;12.58;63.69;94415.69;4965150;28;19914;-79
2021/04/28 00:39:24;;;;;;;;;;;;;;;12.57;64.03;94416.72;4979186;28;20418;-80
2021/04/28 00:41:49;;;;;;;;;;;;;;;12.52;64.65;94427.09;4987407;23;20229;-80
2021/04/28 00:44:20;;;;;;;;;;;;;;;12.54;64.48;94424.28;5164249;23;19920;-79
2021/04/28 00:46:48;;;;;;;;;;;;;;;12.61;64.14;94423.00;4955059;29;19926;-79
2021/04/28 00:49:13;;;;;;;;;;;;;;;12.59;63.78;94432.91;5035113;23;19921;-78
2021/04/28 00:51:38;;;;;;;;;;;;;;;12.62;63.76;94429.00;5014641;23;20056;-79
2021/04/28 00:54:04;;;;;;;;;;;;;;;12.59;64.16;94424.28;5023642;23;20441;-79
2021/04/28 00:56:29;;;;;;;;;;;;;;;12.62;63.97;94419.34;5051795;22;19930;-79
2021/04/28 00:58:55;;;;;;;;;;;;;;;12.61;63.93;94419.59;4974023;28;20015;-79
2021/04/28 01:01:21;;;;;;;;;;;;;;;12.59;64.16;94411.25;4972237;28;20302;-79
2021/04/28 01:03:47;;;;;;;;;;;;;;;12.61;64.06;94409.94;4971046;28;19922;-79
2021/04/28 01:06:13;;;;;;;;;;;;;;;12.53;64.76;94407.84;4985329;23;19925;-79
2021/04/28 01:08:38;;;;;;;;;;;;;;;12.51;64.75;94407.28;4988768;28;19928;-79
2021/04/28 01:11:03;;;;;;;;;;;;;;;12.55;64.65;94408.38;4980524;28;20390;-81
2021/04/28 01:13:29;;;;;;;;;;;;;;;12.49;64.38;94416.41;4978381;28;19918;-80
2021/04/28 01:15:54;;;;;;;;;;;;;;;12.50;64.64;94413.53;4980916;28;19918;-79
2021/04/28 01:18:20;;;;;;;;;;;;;;;12.50;64.76;94402.31;5021621;23;20381;-78
2021/04/28 01:20:45;;;;;;;;;;;;;;;12.43;64.48;94405.16;5003714;28;19928;-79
2021/04/28 01:23:11;;;;;;;;;;;;;;;12.47;64.78;94401.00;5012527;28;20397;-79
2021/04/28 01:25:36;;;;;;;;;;;;;;;12.41;64.83;94404.63;5023125;28;19924;-79
2021/04/28 01:28:03;;;;;;;;;;;;;;;12.37;64.91;94395.75;5022743;28;20408;-79
2021/04/28 01:30:42;;;;;;;;;;;;;;;12.36;65.15;94401.19;5059626;22;19964;-80
2021/04/28 01:33:09;;;;;;;;;;;;;;;12.38;64.72;94394.72;4989752;28;19948;-80
2021/04/28 01:35:34;;;;;;;;;;;;;;;12.36;64.63;94395.97;4983816;28;19921;-79
2021/04/28 01:40:35;;;;;;;;;;;;;;;12.30;65.06;94395.19;5754837;22;19929;-78
2021/04/28 01:43:00;;;;;;;;;;;;;;;12.27;65.00;94399.09;5002235;28;19977;-78
2021/04/28 01:45:26;;;;;;;;;;;;;;;12.22;65.30;94395.66;5029072;23;20150;-80
2021/04/28 01:47:51;;;;;;;;;;;;;;;12.21;65.75;94394.09;5074254;22;19920;-80
2021/04/28 01:50:17;;;;;;;;;;;;;;;12.21;65.36;94386.28;4985060;28;19926;-79
2021/04/28 01:52:46;;;;;;;;;;;;;;;12.24;64.71;94385.78;4975238;28;19921;-80
2021/04/28 01:55:11;;;;;;;;;;;;;;;12.09;65.72;94393.50;4965963;28;20464;-79
2021/04/28 01:57:37;;;;;;;;;;;;;;;12.06;66.16;94397.38;5016931;23;19932;-80
2021/04/28 02:00:04;;;;;;;;;;;;;;;12.03;65.59;94397.88;4974250;28;19925;-79
2021/04/28 02:02:30;;;;;;;;;;;;;;;11.93;65.18;94403.81;5047901;22;20309;-80
2021/04/28 02:04:55;;;;;;;;;;;;;;;11.83;65.94;94398.50;5000538;28;19924;-79
2021/04/28 02:07:20;;;;;;;;;;;;;;;11.77;65.61;94409.13;5038358;23;20290;-80
2021/04/28 02:09:45;;;;;;;;;;;;;;;11.68;66.69;94411.38;4992791;28;19926;-80
2021/04/28 02:12:11;;;;;;;;;;;;;;;11.66;66.43;94413.44;5003766;28;19918;-79
2021/04/28 02:14:36;;;;;;;;;;;;;;;11.62;67.25;94425.41;4985226;28;19957;-78
2021/04/28 02:17:02;;;;;;;;;;;;;;;11.63;66.01;94411.34;4975745;28;20401;-80
2021/04/28 02:24:35;;;;;;;;;;;;;;;11.65;66.72;94397.03;5022336;22;19972;-80
2021/04/28 02:27:00;;;;;;;;;;;;;;;11.68;66.84;94398.34;4983023;28;19921;-81
2021/04/28 02:29:25;;;;;;;;;;;;;;;11.70;66.44;94398.91;4982726;28;19932;-80
2021/04/28 02:31:51;;;;;;;;;;;;;;;11.71;66.53;94403.06;4981908;28;19991;-79
2021/04/28 02:34:16;;;;;;;;;;;;;;;11.69;66.21;94402.53;5027843;23;21395;-80
2021/04/28 02:36:42;;;;;;;;;;;;;;;11.69;67.41;94412.94;4992564;28;20012;-79
2021/04/28 02:39:11;;;;;;;;;;;;;;;11.72;66.34;94408.06;4981413;28;19922;-80
2021/04/28 02:41:40;;;;;;;;;;;;;;;11.74;66.70;94402.59;4991239;22;19926;-79
2021/04/28 02:44:05;;;;;;;;;;;;;;;11.73;66.62;94408.84;4978092;28;19918;-78
2021/04/28 02:46:31;;;;;;;;;;;;;;;11.73;66.25;94412.22;4971339;28;19930;-79
2021/04/28 02:48:56;;;;;;;;;;;;;;;11.72;66.22;94413.25;4972027;28;20107;-78
2021/04/28 02:51:21;;;;;;;;;;;;;;;11.75;65.66;94427.59;5011897;22;19921;-78
2021/04/28 02:53:46;;;;;;;;;;;;;;;11.65;65.90;94417.09;5054071;23;20353;-77
2021/04/28 02:56:12;;;;;;;;;;;;;;;11.67;66.28;94422.84;4997924;28;20070;-78
2021/04/28 02:58:37;;;;;;;;;;;;;;;11.64;65.70;94411.09;4983703;28;19945;-79
2021/04/28 03:01:03;;;;;;;;;;;;;;;11.61;66.02;94421.22;4981031;28;19918;-79
2021/04/28 03:03:28;;;;;;;;;;;;;;;11.62;66.25;94428.00;4981754;28;20372;-78
2021/04/28 03:05:53;;;;;;;;;;;;;;;11.55;66.47;94430.00;4983941;28;19964;-79
2021/04/28 03:08:19;;;;;;;;;;;;;;;11.56;66.30;94440.22;4982700;28;19928;-79
2021/04/28 03:10:44;;;;;;;;;;;;;;;11.60;66.49;94437.88;4984145;28;19922;-79
2021/04/28 03:13:10;;;;;;;;;;;;;;;11.55;66.17;94432.63;5029654;22;19929;-79
2021/04/28 03:15:35;;;;;;;;;;;;;;;11.56;66.35;94429.00;4984909;28;19918;-79
2021/04/28 03:18:00;;;;;;;;;;;;;;;11.57;66.81;94436.56;4991929;28;20523;-79
2021/04/28 03:20:26;;;;;;;;;;;;;;;11.63;66.07;94440.78;5000884;28;20016;-80
2021/04/28 03:22:51;;;;;;;;;;;;;;;11.62;66.88;94441.03;5096633;22;19937;-79
2021/04/28 03:25:17;;;;;;;;;;;;;;;11.61;67.03;94442.84;5127612;22;20340;-80
2021/04/28 03:30:24;;;;;;;;;;;;;;;11.72;66.53;94446.34;5149654;23;20384;-79
2021/04/28 03:32:49;;;;;;;;;;;;;;;11.72;66.40;94449.72;4985799;28;19953;-79
2021/04/28 03:35:14;;;;;;;;;;;;;;;11.77;66.21;94450.81;4981833;22;19957;-80
2021/04/28 03:37:40;;;;;;;;;;;;;;;11.81;66.23;94452.69;4993476;28;20386;-78
2021/04/28 03:40:06;;;;;;;;;;;;;;;11.88;65.13;94455.88;4971771;28;19945;-78
2021/04/28 03:42:31;;;;;;;;;;;;;;;11.88;65.59;94468.91;5062433;22;19976;-79
2021/04/28 03:44:56;;;;;;;;;;;;;;;11.93;65.14;94466.34;4995676;23;20357;-79
2021/04/28 03:47:21;;;;;;;;;;;;;;;11.87;65.16;94466.53;5013070;23;19916;-79
2021/04/28 03:49:47;;;;;;;;;;;;;;;11.99;65.55;94475.75;4998800;22;20366;-80
2021/04/28 03:52:12;;;;;;;;;;;;;;;12.12;64.26;94473.78;4981243;28;19926;-79
2021/04/28 03:54:37;;;;;;;;;;;;;;;12.14;64.15;94467.28;4954506;28;20294;-79
2021/04/28 03:57:04;;;;;;;;;;;;;;;12.19;64.76;94469.13;4944131;28;19922;-80
2021/04/28 03:59:36;;;;;;;;;;;;;;;12.25;63.99;94471.53;4992416;22;19976;-79
2021/04/28 04:02:01;;;;;;;;;;;;;;;12.29;63.74;94479.63;5082186;22;20866;-79
2021/04/28 04:04:30;;;;;;;;;;;;;;;12.32;63.92;94473.94;4984443;28;20005;-79
2021/04/28 04:06:55;;;;;;;;;;;;;;;12.40;63.82;94478.69;5013592;22;20025;-78
2021/04/28 04:09:20;;;;;;;;;;;;;;;12.57;63.39;94479.31;4981542;28;19929;-79
2021/04/28 04:11:46;;;;;;;;;;;;;;;13.13;61.85;94470.97;5035302;22;20026;-78
2021/04/28 04:14:11;;;;;;;;;;;;;;;13.81;59.65;94475.09;5011522;22;20008;-80
2021/04/28 04:16:36;;;;;;;;;;;;;;;14.10;58.35;94492.88;4991517;28;19918;-79
2021/04/28 04:19:02;;;;;;;;;;;;;;;14.05;58.60;94498.91;5069369;23;19928;-79
2021/04/28 04:21:27;;;;;;;;;;;;;;;14.14;58.29;94496.53;4990077;28;20406;-79
2021/04/28 04:23:54;;;;;;;;;;;;;;;14.60;56.82;94501.78;5018096;22;19973;-81
2021/04/28 04:26:19;;;;;;;;;;;;;;;15.37;54.39;94500.53;4980530;28;20023;-79
2021/04/28 04:28:44;;;;;;;;;;;;;;;16.28;51.41;94498.44;4999016;28;20394;-79
2021/04/28 04:31:10;;;;;;;;;;;;;;;17.50;48.35;94499.84;5035648;22;19922;-79
2021/04/28 04:33:35;;;;;;;;;;;;;;;18.44;45.48;94500.63;4981833;28;19936;-79
2021/04/28 04:36:00;;;;;;;;;;;;;;;19.65;42.38;94490.81;4982334;28;20009;-80
2021/04/28 04:38:26;;;;;;;;;;;;;;;20.98;39.54;94490.03;4981287;28;19952;-79
2021/04/28 04:40:51;;;;;;;;;;;;;;;22.12;37.68;94495.34;4984782;28;19922;-79
2021/04/28 04:43:16;;;;;;;;;;;;;;;22.97;35.23;94502.75;4971887;28;19917;-84
2021/04/28 04:45:42;;;;;;;;;;;;;;;23.68;33.76;94489.63;5036224;23;20033;-84
2021/04/28 04:48:07;;;;;;;;;;;;;;;24.18;32.29;94502.88;4989339;28;20365;-80
2021/04/28 04:50:33;;;;;;;;;;;;;;;24.62;31.77;94499.88;4991601;22;19959;-78
2021/04/28 04:52:58;;;;;;;;;;;;;;;25.32;30.89;94508.66;4982266;28;19980;-79
2021/04/28 04:55:23;;;;;;;;;;;;;;;25.70;30.16;94506.47;4981955;28;20056;-79
2021/04/28 04:57:49;;;;;;;;;;;;;;;25.44;29.69;94522.00;4984502;28;19922;-79
2021/04/28 05:00:15;;;;;;;;;;;;;;;25.12;30.55;94513.75;4983493;28;19961;-79
2021/04/28 05:02:40;;;;;;;;;;;;;;;24.28;30.86;94509.69;4986936;28;19929;-79
2021/04/28 05:05:06;;;;;;;;;;;;;;;22.96;33.23;94501.97;4968664;28;20016;-79
2021/04/28 05:07:32;;;;;;;;;;;;;;;22.02;35.03;94494.84;4985416;28;19926;-80
2021/04/28 05:09:57;;;;;;;;;;;;;;;21.68;35.95;94490.31;4985359;28;19926;-79
2021/04/28 05:12:22;;;;;;;;;;;;;;;21.78;35.81;94490.78;4983903;28;19929;-79
2021/04/28 05:14:48;;;;;;;;;;;;;;;22.23;34.36;94497.69;4968361;28;19917;-79
2021/04/28 05:17:13;;;;;;;;;;;;;;;22.40;33.47;94495.03;4982443;28;20386;-78
2021/04/28 05:19:39;;;;;;;;;;;;;;;23.08;32.03;94500.50;5040749;22;19944;-78
2021/04/28 05:22:04;;;;;;;;;;;;;;;24.07;30.42;94498.25;4998576;23;19928;-79
2021/04/28 05:24:29;;;;;;;;;;;;;;;24.99;29.13;94514.81;4994324;28;20039;-79
2021/04/28 05:26:54;;;;;;;;;;;;;;;25.73;26.87;94516.47;4994326;28;19913;-79
2021/04/28 05:31:48;;;;;;;;;;;;;;;27.18;25.33;94528.91;5029366;22;19929;-79
2021/04/28 05:34:20;;;;;;;;;;;;;;;27.92;24.14;94526.44;4983837;28;20004;-78
2021/04/28 05:36:45;;;;;;;;;;;;;;;28.65;22.63;94515.78;4977643;28;19914;-78
2021/04/28 05:39:11;;;;;;;;;;;;;;;29.34;22.08;94507.81;5048358;23;19925;-79
2021/04/28 05:41:39;;;;;;;;;;;;;;;30.56;20.17;94480.81;5023077;28;19917;-79
2021/04/28 05:44:08;;;;;;;;;;;;;;;31.22;19.17;94473.81;5003821;28;19925;-79
2021/04/28 05:46:37;;;;;;;;;;;;;;;32.33;18.47;94478.03;5010563;28;20450;-79
2021/04/28 05:49:03;;;;;;;;;;;;;;;33.45;17.40;94477.91;5008020;28;19917;-78
2021/04/28 05:51:28;;;;;;;;;;;;;;;34.40;16.46;94473.50;5010381;28;19960;-80
2021/04/28 05:53:54;;;;;;;;;;;;;;;32.93;17.36;94467.47;5003560;28;19953;-78
2021/04/28 05:56:19;;;;;;;;;;;;;;;33.52;17.01;94475.19;5010115;28;20386;-78
2021/04/28 05:58:44;;;;;;;;;;;;;;;34.34;15.83;94467.72;5009136;28;19924;-79
2021/04/28 06:01:10;;;;;;;;;;;;;;;34.50;16.03;94473.47;5005823;28;19925;-79
2021/04/28 06:03:35;;;;;;;;;;;;;;;33.92;15.74;94480.19;5002293;28;19917;-79
2021/04/28 06:06:00;;;;;;;;;;;;;;;34.26;15.60;94487.81;5001075;28;19925;-79
2021/04/28 06:08:26;;;;;;;;;;;;;;;34.03;16.11;94479.41;5033871;22;19926;-79
2021/04/28 06:10:51;;;;;;;;;;;;;;;33.72;16.16;94482.50;4991009;22;19926;-79
2021/04/28 06:13:16;;;;;;;;;;;;;;;33.71;16.83;94491.00;4983362;28;19968;-79
2021/04/28 06:15:42;;;;;;;;;;;;;;;33.46;16.82;94495.63;4984161;28;20481;-79
2021/04/28 06:18:07;;;;;;;;;;;;;;;32.71;16.95;94496.25;5006805;28;19918;-79
2021/04/28 06:20:33;;;;;;;;;;;;;;;31.46;18.43;94504.75;4985302;28;19922;-79
2021/04/28 06:22:58;;;;;;;;;;;;;;;31.12;19.09;94501.34;4967250;28;19972;-80
2021/04/28 06:25:24;;;;;;;;;;;;;;;30.23;19.71;94505.69;4982452;28;20049;-80
2021/04/28 06:27:49;;;;;;;;;;;;;;;29.59;19.95;94500.19;5007215;28;19941;-79
2021/04/28 06:30:15;;;;;;;;;;;;;;;29.60;20.39;94496.38;4989643;28;20497;-79
2021/04/28 06:35:08;;;;;;;;;;;;;;;29.02;20.66;94503.84;5056396;22;20361;-79
2021/04/28 06:37:34;;;;;;;;;;;;;;;27.73;21.54;94511.16;4988527;28;19946;-79
2021/04/28 06:39:59;;;;;;;;;;;;;;;27.36;22.22;94514.09;4974305;28;19922;-79
2021/04/28 06:42:25;;;;;;;;;;;;;;;26.64;23.10;94521.34;5012579;22;19925;-79
2021/04/28 06:44:50;;;;;;;;;;;;;;;26.14;23.99;94513.84;4982343;28;20000;-78
2021/04/28 06:47:16;;;;;;;;;;;;;;;26.20;23.95;94518.63;4982722;28;20298;-79
2021/04/28 06:49:41;;;;;;;;;;;;;;;25.53;24.63;94521.88;4982250;28;19918;-79
2021/04/28 06:52:13;;;;;;;;;;;;;;;25.37;24.97;94517.22;4982997;28;19917;-79
2021/04/28 06:54:38;;;;;;;;;;;;;;;25.25;25.19;94524.44;4974015;28;20596;-79
2021/04/28 06:57:03;;;;;;;;;;;;;;;24.35;26.06;94512.59;4985714;28;19945;-79
2021/04/28 07:04:34;;;;;;;;;;;;;;;23.32;27.16;94533.34;4991222;28;19922;-78
2021/04/28 07:06:59;;;;;;;;;;;;;;;23.25;27.23;94525.09;4993397;28;20404;-79
2021/04/28 07:09:25;;;;;;;;;;;;;;;22.67;27.44;94523.06;4973187;28;19921;-79
2021/04/28 07:11:50;;;;;;;;;;;;;;;22.75;27.56;94533.63;4972622;28;19918;-79
2021/04/28 07:14:18;;;;;;;;;;;;;;;22.69;27.38;94519.00;4973110;28;19922;-79
2021/04/28 07:16:44;;;;;;;;;;;;;;;23.05;26.66;94531.09;4972538;28;19984;-79
2021/04/28 07:19:09;;;;;;;;;;;;;;;23.34;26.68;94531.16;4971487;28;19945;-79
2021/04/28 07:21:34;;;;;;;;;;;;;;;23.06;27.04;94524.69;4972673;28;19918;-79
2021/04/28 07:24:00;;;;;;;;;;;;;;;22.78;27.60;94532.25;4958087;28;19928;-79
2021/04/28 07:29:02;;;;;;;;;;;;;;;22.71;27.87;94535.34;5072178;22;19926;-78
2021/04/28 07:31:29;;;;;;;;;;;;;;;22.70;28.10;94531.16;4973495;28;19925;-78
2021/04/28 07:33:54;;;;;;;;;;;;;;;22.81;28.03;94533.47;4971101;28;19918;-78
2021/04/28 07:36:20;;;;;;;;;;;;;;;22.99;27.57;94530.50;4972530;28;19924;-78
2021/04/28 07:38:45;;;;;;;;;;;;;;;23.06;27.52;94530.00;4974506;28;19918;-79
2021/04/28 07:41:10;;;;;;;;;;;;;;;22.65;27.81;94528.66;4971485;28;19945;-79
2021/04/28 07:43:36;;;;;;;;;;;;;;;22.50;28.27;94531.03;4972979;28;19925;-79
2021/04/28 07:46:01;;;;;;;;;;;;;;;22.30;28.78;94529.78;4972078;28;19946;-78
2021/04/28 07:48:27;;;;;;;;;;;;;;;22.19;28.68;94523.25;4972476;28;19922;-79
2021/04/28 07:50:52;;;;;;;;;;;;;;;22.24;28.55;94523.06;4956234;28;19929;-78
2021/04/28 07:53:17;;;;;;;;;;;;;;;22.40;28.72;94522.28;4972233;28;19918;-78
2021/04/28 07:55:45;;;;;;;;;;;;;;;22.38;28.57;94523.69;4973278;28;19922;-79
2021/04/28 08:00:43;;;;;;;;;;;;;;;22.76;27.94;94523.78;5053047;22;19930;-79
2021/04/28 08:03:09;;;;;;;;;;;;;;;22.73;28.50;94525.22;4985493;28;20313;-79
2021/04/28 08:05:34;;;;;;;;;;;;;;;22.90;27.68;94507.72;4981883;28;20016;-78
2021/04/28 08:07:59;;;;;;;;;;;;;;;22.94;27.78;94508.66;4982496;28;20047;-79
2021/04/28 08:10:25;;;;;;;;;;;;;;;22.80;28.42;94510.72;4982270;28;19980;-80
2021/04/28 08:12:50;;;;;;;;;;;;;;;22.54;28.66;94511.53;4966034;28;19932;-80
2021/04/28 08:15:15;;;;;;;;;;;;;;;22.61;28.34;94517.13;4982030;28;19980;-80
2021/04/28 08:17:41;;;;;;;;;;;;;;;22.72;28.20;94523.66;4983544;28;19926;-80
2021/04/28 08:20:06;;;;;;;;;;;;;;;22.81;28.40;94517.56;4999112;23;19929;-80
2021/04/28 08:22:33;;;;;;;;;;;;;;;23.04;28.49;94529.53;4990883;28;19921;-79
2021/04/28 08:24:59;;;;;;;;;;;;;;;22.61;28.40;94517.13;5039167;23;19930;-79
2021/04/28 08:27:24;;;;;;;;;;;;;;;22.16;29.44;94516.69;5014705;23;19925;-79
2021/04/28 08:29:49;;;;;;;;;;;;;;;21.96;29.49;94502.16;4984484;28;20432;-80
2021/04/28 08:32:16;;;;;;;;;;;;;;;21.65;30.12;94497.00;4984151;28;19968;-78
2021/04/28 08:34:42;;;;;;;;;;;;;;;21.78;30.48;94505.88;4992148;28;19922;-79
2021/04/28 08:37:07;;;;;;;;;;;;;;;21.69;30.82;94502.44;4986449;28;20428;-79
2021/04/28 08:39:33;;;;;;;;;;;;;;;21.83;30.62;94509.16;5008996;28;19928;-79
2021/04/28 08:41:58;;;;;;;;;;;;;;;21.77;30.92;94504.31;4967474;28;19917;-79
2021/04/28 08:44:23;;;;;;;;;;;;;;;21.39;31.19;94499.56;4985677;28;19922;-79
2021/04/28 08:46:50;;;;;;;;;;;;;;;21.13;32.35;94506.59;4986321;28;19918;-79
2021/04/28 08:49:15;;;;;;;;;;;;;;;21.00;32.27;94502.22;4985391;28;20441;-79
2021/04/28 08:51:41;;;;;;;;;;;;;;;20.84;32.80;94493.91;4986318;28;19918;-79
2021/04/28 08:54:06;;;;;;;;;;;;;;;21.11;32.27;94485.75;4969116;28;19922;-79
2021/04/28 08:56:32;;;;;;;;;;;;;;;21.15;32.27;94491.19;4970707;28;19973;-79
2021/04/28 08:59:04;;;;;;;;;;;;;;;20.88;32.75;94500.91;4968209;28;19956;-79
2021/04/28 09:01:30;;;;;;;;;;;;;;;20.69;33.29;94492.41;4983837;28;20071;-79
2021/04/28 09:03:59;;;;;;;;;;;;;;;20.72;33.44;94486.53;4986148;28;20318;-78
2021/04/28 09:06:25;;;;;;;;;;;;;;;20.36;34.23;94494.50;4989771;28;20351;-78
2021/04/28 09:09:06;;;;;;;;;;;;;;;20.34;34.57;94501.97;5002454;28;19917;-79
2021/04/28 09:11:34;;;;;;;;;;;;;;;20.33;34.46;94495.88;5003193;28;19918;-77
2021/04/28 09:14:06;;;;;;;;;;;;;;;20.44;34.21;94485.88;5001253;28;19918;-78
2021/04/28 09:16:34;;;;;;;;;;;;;;;20.80;33.82;94485.78;5025374;28;19959;-78
2021/04/28 09:18:59;;;;;;;;;;;;;;;20.73;33.67;94485.44;5249808;23;19925;-78
2021/04/28 09:21:43;;;;;;;;;;;;;;;20.51;34.03;94480.19;4994958;28;19921;-78
2021/04/28 09:24:18;;;;;;;;;;;;;;;20.41;34.16;94478.56;5003749;28;19972;-79
2021/04/28 09:26:44;;;;;;;;;;;;;;;20.46;34.14;94483.72;5004815;28;19922;-78
2021/04/28 09:29:09;;;;;;;;;;;;;;;20.63;33.92;94472.47;5004324;28;19927;-79
2021/04/28 09:31:35;;;;;;;;;;;;;;;20.52;34.27;94471.19;4984897;28;19925;-78
2021/04/28 09:34:00;;;;;;;;;;;;;;;20.62;34.43;94470.91;5003905;28;19932;-78
2021/04/28 09:36:31;;;;;;;;;;;;;;;20.53;33.82;94462.19;5027013;28;19918;-77
2021/04/28 09:39:17;;;;;;;;;;;;;;;20.59;34.24;94461.72;5018144;28;20425;-78
2021/04/28 09:41:44;;;;;;;;;;;;;;;20.57;33.62;94473.69;5025187;28;19924;-78
2021/04/28 09:44:19;;;;;;;;;;;;;;;20.57;34.10;94457.84;5008581;28;19921;-78
2021/04/28 09:46:53;;;;;;;;;;;;;;;20.47;34.44;94460.72;5017507;28;19921;-76
2021/04/28 09:49:18;;;;;;;;;;;;;;;20.66;34.14;94440.16;5001571;28;19976;-77
2021/04/28 09:51:43;;;;;;;;;;;;;;;20.82;33.92;94449.25;5015354;22;20124;-78
2021/04/28 09:54:12;;;;;;;;;;;;;;;20.58;34.19;94448.84;4985394;28;19934;-77
2021/04/28 09:56:38;;;;;;;;;;;;;;;20.60;34.21;94442.16;4995496;28;19977;-78
2021/04/28 09:59:03;;;;;;;;;;;;;;;20.60;34.38;94441.38;5025495;28;19978;-79
2021/04/28 10:01:33;;;;;;;;;;;;;;;20.23;34.58;94432.75;4996570;28;20004;-79
2021/04/28 10:03:58;;;;;;;;;;;;;;;20.19;34.96;94437.09;4985299;28;19917;-79
2021/04/28 10:06:42;;;;;;;;;;;;;;;20.50;34.31;94433.69;4983775;28;20413;-79
2021/04/28 10:09:23;;;;;;;;;;;;;;;20.59;34.01;94440.59;4982884;28;19944;-79
2021/04/28 10:11:49;;;;;;;;;;;;;;;20.64;33.76;94437.03;4980627;28;20378;-79
2021/04/28 10:14:14;;;;;;;;;;;;;;;20.36;34.37;94437.19;4982967;28;19925;-79
2021/04/28 10:16:39;;;;;;;;;;;;;;;20.38;34.33;94431.59;4984134;28;20394;-79
2021/04/28 10:19:04;;;;;;;;;;;;;;;20.47;33.63;94439.59;4984035;28;19918;-79
2021/04/28 10:21:30;;;;;;;;;;;;;;;20.25;34.46;94430.59;5008363;28;19934;-79
2021/04/28 10:24:01;;;;;;;;;;;;;;;20.07;35.06;94424.44;4987098;28;19941;-79
2021/04/28 10:26:26;;;;;;;;;;;;;;;20.12;34.96;94418.22;5008691;28;19917;-79
2021/04/28 10:28:52;;;;;;;;;;;;;;;20.40;34.72;94410.94;4983757;28;19972;-79
2021/04/28 10:31:17;;;;;;;;;;;;;;;20.32;34.51;94409.03;4989828;28;19918;-79
2021/04/28 10:33:43;;;;;;;;;;;;;;;20.37;34.50;94407.06;5007603;28;19922;-79
2021/04/28 10:36:08;;;;;;;;;;;;;;;20.24;34.80;94413.19;4984341;28;20294;-79
2021/04/28 10:38:33;;;;;;;;;;;;;;;20.24;34.54;94422.97;4992586;28;19922;-79
2021/04/28 10:40:58;;;;;;;;;;;;;;;20.57;34.10;94416.34;4983071;28;20009;-79
2021/04/28 10:43:33;;;;;;;;;;;;;;;20.39;34.48;94430.53;4985394;28;19977;-80
2021/04/28 10:45:59;;;;;;;;;;;;;;;20.26;34.65;94416.31;4984962;28;19981;-80
2021/04/28 10:48:37;;;;;;;;;;;;;;;20.52;34.64;94407.78;4978363;28;19969;-80
2021/04/28 10:51:02;;;;;;;;;;;;;;;20.62;34.44;94396.94;4968030;28;19922;-80
2021/04/28 10:53:28;;;;;;;;;;;;;;;21.04;33.96;94392.91;5055410;23;19928;-79
2021/04/28 10:56:05;;;;;;;;;;;;;;;20.84;34.14;94394.25;5021329;28;19921;-79
2021/04/28 10:58:37;;;;;;;;;;;;;;;20.83;34.49;94394.56;5008939;28;19922;-80
2021/04/28 11:01:04;;;;;;;;;;;;;;;21.02;33.89;94404.88;5002418;28;19924;-80
2021/04/28 11:03:30;;;;;;;;;;;;;;;21.10;33.58;94388.25;5008974;28;20408;-79
2021/04/28 11:05:58;;;;;;;;;;;;;;;21.08;33.38;94379.84;5011322;28;19922;-83
2021/04/28 11:08:32;;;;;;;;;;;;;;;20.87;34.36;94385.69;4999963;28;19917;-79
2021/04/28 11:10:57;;;;;;;;;;;;;;;20.88;33.97;94379.31;5007734;28;19929;-79
2021/04/28 11:13:24;;;;;;;;;;;;;;;21.16;33.87;94387.03;5005552;28;19979;-78
2021/04/28 11:15:58;;;;;;;;;;;;;;;21.27;33.37;94380.38;5000483;28;19921;-79
2021/04/28 11:18:33;;;;;;;;;;;;;;;21.26;33.27;94376.16;5000798;28;19921;-77
2021/04/28 11:21:25;;;;;;;;;;;;;;;21.15;33.30;94361.66;5002022;28;19921;-79
2021/04/28 11:24:09;;;;;;;;;;;;;;;21.18;33.45;94345.97;5005485;28;19917;-79
2021/04/28 11:26:35;;;;;;;;;;;;;;;21.36;33.32;94351.28;5002061;28;19918;-69
2021/04/28 11:29:01;;;;;;;;;;;;;;;21.51;33.48;94364.06;4999649;28;19964;-70
2021/04/28 11:31:38;;;;;;;;;;;;;;;21.13;33.46;94347.97;4999932;28;19921;-70
2021/04/28 11:34:20;;;;;;;;;;;;;;;21.25;33.53;94341.00;4999187;28;20389;-70
2021/04/28 11:36:51;;;;;;;;;;;;;;;21.16;33.53;94347.38;4998046;28;20012;-70
2021/04/28 11:39:51;;;;;;;;;;;;;;;21.25;33.40;94351.59;4999288;28;19921;-69
2021/04/28 11:42:19;;;;;;;;;;;;;;;21.39;33.34;94340.88;4958587;28;20565;-70
2021/04/28 11:44:45;;;;;;;;;;;;;;;21.50;33.15;94363.28;4992316;28;19917;-70
2021/04/28 11:47:11;;;;;;;;;;;;;;;21.26;33.44;94339.16;4999006;28;19928;-70
2021/04/28 11:49:43;;;;;;;;;;;;;;;21.16;33.76;94332.28;4999946;28;20385;-70
2021/04/28 11:52:08;;;;;;;;;;;;;;;20.95;34.20;94337.34;4999159;28;20026;-70
2021/04/28 11:54:34;;;;;;;;;;;;;;;21.02;34.14;94336.13;4999125;28;19960;-70
2021/04/28 11:56:59;;;;;;;;;;;;;;;20.93;34.25;94328.19;4999877;28;19923;-70
2021/04/28 11:59:26;;;;;;;;;;;;;;;21.14;33.83;94338.94;4999123;28;20394;-69
2021/04/28 12:01:55;;;;;;;;;;;;;;;21.11;33.89;94328.97;4998081;28;19928;-69
2021/04/28 12:04:25;;;;;;;;;;;;;;;21.19;33.32;94321.06;4998518;28;19918;-70
2021/04/28 12:06:53;;;;;;;;;;;;;;;21.11;34.21;94305.97;4999108;28;19918;-69
2021/04/28 12:09:24;;;;;;;;;;;;;;;21.21;34.33;94303.03;4997983;28;20385;-69
2021/04/28 12:12:05;;;;;;;;;;;;;;;21.19;33.71;94294.63;4998799;28;19921;-69
2021/04/28 12:14:31;;;;;;;;;;;;;;;21.25;33.07;94303.22;4997850;28;19924;-70
2021/04/28 12:16:56;;;;;;;;;;;;;;;21.20;33.62;94306.75;4999475;28;20316;-69
2021/04/28 12:19:21;;;;;;;;;;;;;;;21.40;33.41;94313.31;4999131;28;19925;-70
2021/04/28 12:21:54;;;;;;;;;;;;;;;21.47;33.60;94307.56;4998469;28;19921;-69
2021/04/28 12:24:32;;;;;;;;;;;;;;;21.20;34.23;94306.75;4997712;28;19924;-69
2021/04/28 12:27:06;;;;;;;;;;;;;;;21.08;34.13;94288.09;5002171;28;19917;-69
2021/04/28 12:29:32;;;;;;;;;;;;;;;21.24;34.17;94280.47;5000071;28;20515;-69
2021/04/28 12:31:57;;;;;;;;;;;;;;;21.09;34.59;94289.63;4998703;28;19917;-70
2021/04/28 12:34:22;;;;;;;;;;;;;;;20.94;34.27;94304.09;4998213;28;19933;-70
2021/04/28 12:36:48;;;;;;;;;;;;;;;20.66;34.50;94297.50;4997631;28;20309;-69
2021/04/28 12:39:26;;;;;;;;;;;;;;;20.62;34.74;94281.47;4998921;28;19921;-69
2021/04/28 12:41:51;;;;;;;;;;;;;;;20.65;35.03;94261.59;4997822;28;19960;-70
2021/04/28 12:44:17;;;;;;;;;;;;;;;20.76;35.21;94270.00;4998641;28;19918;-70
2021/04/28 12:46:44;;;;;;;;;;;;;;;20.60;35.17;94273.09;4998994;28;20381;-70
2021/04/28 12:49:09;;;;;;;;;;;;;;;20.50;35.07;94273.38;4997042;28;20381;-70
2021/04/28 12:51:41;;;;;;;;;;;;;;;20.51;35.31;94259.09;5004444;28;19967;-72
2021/04/28 12:54:06;;;;;;;;;;;;;;;20.60;35.58;94248.53;4997119;28;19944;-70
2021/04/28 12:56:46;;;;;;;;;;;;;;;20.71;35.21;94239.25;4996973;28;19925;-70
2021/04/28 12:59:15;;;;;;;;;;;;;;;20.74;35.52;94243.91;4997487;28;19925;-70
2021/04/28 13:01:40;;;;;;;;;;;;;;;20.62;35.40;94281.47;4998305;28;19918;-72
2021/04/28 13:04:16;;;;;;;;;;;;;;;20.60;35.57;94240.59;4998104;28;20500;-70
2021/04/28 13:06:41;;;;;;;;;;;;;;;20.57;35.67;94241.22;4998311;28;20037;-71
2021/04/28 13:09:11;;;;;;;;;;;;;;;20.52;35.20;94233.47;4998299;28;20393;-71
2021/04/28 13:11:40;;;;;;;;;;;;;;;20.44;35.32;94231.56;4997606;28;20434;-71